Página principal
METAR-TAF:

METAR-TAF

Aeroportos :

Funafuti, Tuvalu

latitude: 08-31S, longitude: 179-13E, altura: 1 m

Observação actual do tempo

O boletim foi feito há 16 minutos, às 01:00 UTC
Vento 6 kt de sudeste
Temperatura 32°C
Humidade 67%
Pressão 1008 hPa
Visibilidade 10 km ou mais
Nuvens dispersasa uma altura de 1900 ft, Cumulus congestus.

METAR: NGFU 160100Z 13006KT 9999 SCT019TCU 32/25 Q1008

Hora: 13:16 (01:16 UTC)

Previsão

O boletim foi feito há 2 horas e 7 minutos, às 23:09 UTC
Previsão válida de 16 às 00 UTC a 16 às 24 UTC
Vento 9 kt de es-sudeste
Visibilidade 10 km ou mais
Nuvens dispersasa uma altura de 1800 ft
Nuvens dispersasa uma altura de 10000 ft

TAF: NGFU 152309Z 1600/1624 12009KT 9999 SCT018 SCT100

Observações e previsões do tempo de mais de 4000 aeroportos (mensagens METAR e TAF).

As estações disponíveis são os pontos amarelos e vermelhos sobre o mapa.

Mova o rato sobre o mapa para ver o nome da estação.

Depois clique no ponto para visualizar as observações e previsões meteorológicas.

Para alterar o mapa : clique nos botões verdes com uma cruz preta para aumentar o zoom; no botão verde com uma pitada de zoom; ou nas setas verdes para mapas adjacentes.


METAR-TAF: